sensor_id;sensor_type;location;lat;lon;timestamp;P1;durP1;ratioP1;P2;durP2;ratioP2
53479;SDS011;56133;51.012;-1.648;2023-01-19T00:00:20;18.67;;;5.70;;
53479;SDS011;56133;51.012;-1.648;2023-01-19T00:02:46;16.70;;;7.20;;
53479;SDS011;56133;51.012;-1.648;2023-01-19T00:05:12;28.35;;;9.23;;
53479;SDS011;56133;51.012;-1.648;2023-01-19T00:07:38;24.83;;;8.20;;
53479;SDS011;56133;51.012;-1.648;2023-01-19T00:10:04;21.45;;;7.47;;
53479;SDS011;56133;51.012;-1.648;2023-01-19T00:12:30;20.70;;;7.20;;
53479;SDS011;56133;51.012;-1.648;2023-01-19T00:14:56;15.43;;;6.80;;
53479;SDS011;56133;51.012;-1.648;2023-01-19T00:17:21;14.75;;;6.00;;
53479;SDS011;56133;51.012;-1.648;2023-01-19T00:19:47;11.80;;;5.78;;
53479;SDS011;56133;51.012;-1.648;2023-01-19T00:22:12;15.15;;;6.28;;
53479;SDS011;56133;51.012;-1.648;2023-01-19T00:24:37;16.25;;;6.28;;
53479;SDS011;56133;51.012;-1.648;2023-01-19T00:27:03;17.77;;;6.18;;
53479;SDS011;56133;51.012;-1.648;2023-01-19T00:29:29;20.48;;;7.13;;
53479;SDS011;56133;51.012;-1.648;2023-01-19T00:31:58;18.98;;;6.65;;
53479;SDS011;56133;51.012;-1.648;2023-01-19T00:34:26;16.10;;;6.28;;
53479;SDS011;56133;51.012;-1.648;2023-01-19T00:37:07;17.20;;;6.05;;
53479;SDS011;56133;51.012;-1.648;2023-01-19T00:39:33;15.70;;;6.85;;
53479;SDS011;56133;51.012;-1.648;2023-01-19T00:41:59;17.48;;;6.88;;
53479;SDS011;56133;51.012;-1.648;2023-01-19T00:44:42;16.30;;;5.85;;
53479;SDS011;56133;51.012;-1.648;2023-01-19T00:47:08;16.88;;;5.82;;
53479;SDS011;56133;51.012;-1.648;2023-01-19T00:49:33;14.65;;;6.20;;
53479;SDS011;56133;51.012;-1.648;2023-01-19T00:51:59;17.30;;;6.22;;
53479;SDS011;56133;51.012;-1.648;2023-01-19T00:54:24;18.55;;;6.38;;
53479;SDS011;56133;51.012;-1.648;2023-01-19T00:56:49;14.43;;;5.95;;
53479;SDS011;56133;51.012;-1.648;2023-01-19T00:59:15;15.65;;;6.82;;
53479;SDS011;56133;51.012;-1.648;2023-01-19T01:01:40;18.38;;;6.15;;
53479;SDS011;56133;51.012;-1.648;2023-01-19T01:04:06;15.20;;;6.45;;
53479;SDS011;56133;51.012;-1.648;2023-01-19T01:06:31;15.73;;;6.28;;
53479;SDS011;56133;51.012;-1.648;2023-01-19T01:08:56;17.25;;;6.25;;
53479;SDS011;56133;51.012;-1.648;2023-01-19T01:11:22;13.10;;;6.43;;
53479;SDS011;56133;51.012;-1.648;2023-01-19T01:13:47;17.55;;;6.57;;
53479;SDS011;56133;51.012;-1.648;2023-01-19T01:16:13;15.00;;;5.70;;
53479;SDS011;56133;51.012;-1.648;2023-01-19T01:18:40;15.68;;;6.40;;
53479;SDS011;56133;51.012;-1.648;2023-01-19T01:21:06;17.92;;;6.38;;
53479;SDS011;56133;51.012;-1.648;2023-01-19T01:23:32;14.98;;;5.47;;
53479;SDS011;56133;51.012;-1.648;2023-01-19T01:25:59;12.30;;;5.88;;
53479;SDS011;56133;51.012;-1.648;2023-01-19T01:28:24;17.38;;;5.93;;
53479;SDS011;56133;51.012;-1.648;2023-01-19T01:30:54;13.10;;;5.82;;
53479;SDS011;56133;51.012;-1.648;2023-01-19T01:33:20;11.68;;;5.60;;
53479;SDS011;56133;51.012;-1.648;2023-01-19T01:35:49;17.88;;;6.30;;
53479;SDS011;56133;51.012;-1.648;2023-01-19T01:38:16;18.60;;;6.75;;
53479;SDS011;56133;51.012;-1.648;2023-01-19T01:40:41;16.15;;;6.43;;
53479;SDS011;56133;51.012;-1.648;2023-01-19T01:43:11;20.92;;;8.10;;
53479;SDS011;56133;51.012;-1.648;2023-01-19T01:45:38;23.02;;;8.38;;
53479;SDS011;56133;51.012;-1.648;2023-01-19T01:48:06;23.08;;;8.88;;
53479;SDS011;56133;51.012;-1.648;2023-01-19T01:51:01;23.98;;;9.98;;
53479;SDS011;56133;51.012;-1.648;2023-01-19T01:53:50;42.30;;;13.95;;
53479;SDS011;56133;51.012;-1.648;2023-01-19T01:56:26;31.30;;;12.05;;
53479;SDS011;56133;51.012;-1.648;2023-01-19T01:58:58;25.13;;;9.98;;
53479;SDS011;56133;51.012;-1.648;2023-01-19T02:01:29;22.15;;;8.90;;
53479;SDS011;56133;51.012;-1.648;2023-01-19T02:04:13;21.27;;;7.80;;
53479;SDS011;56133;51.012;-1.648;2023-01-19T02:06:39;19.63;;;7.43;;
53479;SDS011;56133;51.012;-1.648;2023-01-19T02:09:23;14.43;;;7.05;;
53479;SDS011;56133;51.012;-1.648;2023-01-19T02:12:11;17.40;;;7.35;;
53479;SDS011;56133;51.012;-1.648;2023-01-19T02:14:55;17.75;;;7.50;;
53479;SDS011;56133;51.012;-1.648;2023-01-19T02:17:21;22.35;;;8.18;;
53479;SDS011;56133;51.012;-1.648;2023-01-19T02:19:46;17.70;;;7.10;;
53479;SDS011;56133;51.012;-1.648;2023-01-19T02:22:18;19.05;;;6.60;;
53479;SDS011;56133;51.012;-1.648;2023-01-19T02:24:50;17.23;;;6.22;;
53479;SDS011;56133;51.012;-1.648;2023-01-19T02:27:16;16.42;;;6.63;;
53479;SDS011;56133;51.012;-1.648;2023-01-19T02:29:42;15.98;;;6.90;;
53479;SDS011;56133;51.012;-1.648;2023-01-19T02:32:07;18.45;;;6.65;;
53479;SDS011;56133;51.012;-1.648;2023-01-19T02:34:33;18.88;;;5.88;;
53479;SDS011;56133;51.012;-1.648;2023-01-19T02:37:11;19.25;;;6.88;;
53479;SDS011;56133;51.012;-1.648;2023-01-19T02:42:14;19.17;;;6.97;;
53479;SDS011;56133;51.012;-1.648;2023-01-19T02:44:44;18.02;;;7.20;;
53479;SDS011;56133;51.012;-1.648;2023-01-19T02:47:12;20.58;;;7.10;;
53479;SDS011;56133;51.012;-1.648;2023-01-19T02:49:38;15.45;;;6.65;;
53479;SDS011;56133;51.012;-1.648;2023-01-19T02:52:04;23.38;;;8.05;;
53479;SDS011;56133;51.012;-1.648;2023-01-19T02:57:47;17.85;;;6.63;;
53479;SDS011;56133;51.012;-1.648;2023-01-19T03:02:36;19.58;;;7.38;;
53479;SDS011;56133;51.012;-1.648;2023-01-19T03:11:09;17.17;;;6.95;;
53479;SDS011;56133;51.012;-1.648;2023-01-19T03:13:52;15.48;;;6.60;;
53479;SDS011;56133;51.012;-1.648;2023-01-19T03:16:20;17.13;;;6.28;;
53479;SDS011;56133;51.012;-1.648;2023-01-19T03:18:55;15.25;;;6.28;;
53479;SDS011;56133;51.012;-1.648;2023-01-19T03:21:27;19.85;;;6.90;;
53479;SDS011;56133;51.012;-1.648;2023-01-19T03:23:56;15.98;;;6.72;;
53479;SDS011;56133;51.012;-1.648;2023-01-19T03:26:26;20.88;;;6.75;;
53479;SDS011;56133;51.012;-1.648;2023-01-19T03:28:54;18.52;;;6.97;;
53479;SDS011;56133;51.012;-1.648;2023-01-19T03:31:23;16.05;;;7.05;;
53479;SDS011;56133;51.012;-1.648;2023-01-19T03:33:55;17.35;;;7.15;;
53479;SDS011;56133;51.012;-1.648;2023-01-19T03:38:55;16.83;;;7.20;;
53479;SDS011;56133;51.012;-1.648;2023-01-19T03:41:23;18.17;;;7.75;;
53479;SDS011;56133;51.012;-1.648;2023-01-19T03:43:52;23.80;;;9.07;;
53479;SDS011;56133;51.012;-1.648;2023-01-19T03:46:18;22.25;;;8.40;;
53479;SDS011;56133;51.012;-1.648;2023-01-19T03:48:45;25.23;;;9.40;;
53479;SDS011;56133;51.012;-1.648;2023-01-19T03:51:11;22.38;;;7.68;;
53479;SDS011;56133;51.012;-1.648;2023-01-19T03:53:38;18.95;;;7.13;;
53479;SDS011;56133;51.012;-1.648;2023-01-19T03:56:04;17.38;;;6.88;;
53479;SDS011;56133;51.012;-1.648;2023-01-19T03:58:31;18.02;;;6.95;;
53479;SDS011;56133;51.012;-1.648;2023-01-19T04:00:56;17.25;;;7.32;;
53479;SDS011;56133;51.012;-1.648;2023-01-19T04:03:22;21.50;;;6.93;;
53479;SDS011;56133;51.012;-1.648;2023-01-19T04:05:47;15.25;;;6.80;;
53479;SDS011;56133;51.012;-1.648;2023-01-19T04:08:13;17.17;;;7.18;;
53479;SDS011;56133;51.012;-1.648;2023-01-19T04:10:38;19.17;;;7.53;;
53479;SDS011;56133;51.012;-1.648;2023-01-19T04:13:04;18.33;;;7.22;;
53479;SDS011;56133;51.012;-1.648;2023-01-19T04:15:30;18.65;;;7.50;;
53479;SDS011;56133;51.012;-1.648;2023-01-19T04:17:56;20.42;;;7.88;;
53479;SDS011;56133;51.012;-1.648;2023-01-19T04:20:22;22.45;;;8.02;;
53479;SDS011;56133;51.012;-1.648;2023-01-19T04:22:48;20.63;;;8.18;;
53479;SDS011;56133;51.012;-1.648;2023-01-19T04:25:14;18.48;;;8.20;;
53479;SDS011;56133;51.012;-1.648;2023-01-19T04:27:39;21.75;;;8.73;;
53479;SDS011;56133;51.012;-1.648;2023-01-19T04:30:05;23.25;;;9.30;;
53479;SDS011;56133;51.012;-1.648;2023-01-19T04:32:31;19.10;;;8.27;;
53479;SDS011;56133;51.012;-1.648;2023-01-19T04:34:57;22.17;;;8.82;;
53479;SDS011;56133;51.012;-1.648;2023-01-19T04:37:23;23.00;;;8.88;;
53479;SDS011;56133;51.012;-1.648;2023-01-19T04:39:48;20.73;;;8.32;;
53479;SDS011;56133;51.012;-1.648;2023-01-19T04:42:14;22.90;;;8.52;;
53479;SDS011;56133;51.012;-1.648;2023-01-19T04:44:39;22.63;;;8.50;;
53479;SDS011;56133;51.012;-1.648;2023-01-19T04:47:04;21.10;;;8.43;;
53479;SDS011;56133;51.012;-1.648;2023-01-19T04:49:30;17.98;;;7.53;;
53479;SDS011;56133;51.012;-1.648;2023-01-19T04:51:55;20.10;;;8.20;;
53479;SDS011;56133;51.012;-1.648;2023-01-19T04:54:21;21.33;;;8.90;;
53479;SDS011;56133;51.012;-1.648;2023-01-19T04:56:47;21.85;;;8.07;;
53479;SDS011;56133;51.012;-1.648;2023-01-19T04:59:12;20.90;;;8.07;;
53479;SDS011;56133;51.012;-1.648;2023-01-19T05:01:38;21.58;;;8.23;;
53479;SDS011;56133;51.012;-1.648;2023-01-19T05:04:03;22.20;;;8.20;;
53479;SDS011;56133;51.012;-1.648;2023-01-19T05:06:31;18.63;;;7.72;;
53479;SDS011;56133;51.012;-1.648;2023-01-19T05:08:57;23.35;;;8.20;;
53479;SDS011;56133;51.012;-1.648;2023-01-19T05:11:22;24.83;;;8.95;;
53479;SDS011;56133;51.012;-1.648;2023-01-19T05:13:47;26.67;;;10.20;;
53479;SDS011;56133;51.012;-1.648;2023-01-19T05:16:13;29.95;;;10.57;;
53479;SDS011;56133;51.012;-1.648;2023-01-19T05:18:38;27.70;;;9.95;;
53479;SDS011;56133;51.012;-1.648;2023-01-19T05:21:04;26.75;;;10.30;;
53479;SDS011;56133;51.012;-1.648;2023-01-19T05:23:31;24.55;;;9.55;;
53479;SDS011;56133;51.012;-1.648;2023-01-19T05:25:57;32.17;;;11.05;;
53479;SDS011;56133;51.012;-1.648;2023-01-19T05:28:27;30.38;;;10.40;;
53479;SDS011;56133;51.012;-1.648;2023-01-19T05:30:53;28.10;;;10.32;;
53479;SDS011;56133;51.012;-1.648;2023-01-19T05:33:19;26.35;;;10.38;;
53479;SDS011;56133;51.012;-1.648;2023-01-19T05:35:45;29.45;;;10.63;;
53479;SDS011;56133;51.012;-1.648;2023-01-19T05:38:13;26.73;;;10.90;;
53479;SDS011;56133;51.012;-1.648;2023-01-19T05:40:39;30.33;;;10.88;;
53479;SDS011;56133;51.012;-1.648;2023-01-19T05:43:04;30.42;;;10.93;;
53479;SDS011;56133;51.012;-1.648;2023-01-19T05:45:29;27.63;;;9.95;;
53479;SDS011;56133;51.012;-1.648;2023-01-19T05:47:55;27.85;;;10.60;;
53479;SDS011;56133;51.012;-1.648;2023-01-19T05:50:21;32.35;;;10.00;;
53479;SDS011;56133;51.012;-1.648;2023-01-19T05:52:46;35.65;;;12.50;;
53479;SDS011;56133;51.012;-1.648;2023-01-19T05:55:12;43.17;;;13.23;;
53479;SDS011;56133;51.012;-1.648;2023-01-19T05:57:39;32.97;;;12.10;;
53479;SDS011;56133;51.012;-1.648;2023-01-19T06:00:05;33.35;;;12.30;;
53479;SDS011;56133;51.012;-1.648;2023-01-19T06:02:31;40.42;;;14.85;;
53479;SDS011;56133;51.012;-1.648;2023-01-19T06:04:56;40.28;;;16.05;;
53479;SDS011;56133;51.012;-1.648;2023-01-19T06:07:22;73.93;;;27.25;;
53479;SDS011;56133;51.012;-1.648;2023-01-19T06:09:47;57.95;;;20.45;;
53479;SDS011;56133;51.012;-1.648;2023-01-19T06:12:13;35.97;;;12.95;;
53479;SDS011;56133;51.012;-1.648;2023-01-19T06:14:38;24.77;;;10.30;;
53479;SDS011;56133;51.012;-1.648;2023-01-19T06:17:05;25.95;;;9.60;;
53479;SDS011;56133;51.012;-1.648;2023-01-19T06:19:31;26.48;;;10.82;;
53479;SDS011;56133;51.012;-1.648;2023-01-19T06:21:57;22.48;;;9.45;;
53479;SDS011;56133;51.012;-1.648;2023-01-19T06:24:23;19.88;;;9.27;;
53479;SDS011;56133;51.012;-1.648;2023-01-19T06:26:49;28.27;;;8.60;;
53479;SDS011;56133;51.012;-1.648;2023-01-19T06:29:15;26.10;;;8.80;;
53479;SDS011;56133;51.012;-1.648;2023-01-19T06:31:41;20.30;;;8.13;;
53479;SDS011;56133;51.012;-1.648;2023-01-19T06:34:07;20.42;;;7.82;;
53479;SDS011;56133;51.012;-1.648;2023-01-19T06:36:33;15.07;;;6.57;;
53479;SDS011;56133;51.012;-1.648;2023-01-19T06:38:58;14.48;;;6.35;;
53479;SDS011;56133;51.012;-1.648;2023-01-19T06:41:27;19.13;;;7.85;;
53479;SDS011;56133;51.012;-1.648;2023-01-19T06:43:53;20.52;;;6.97;;
53479;SDS011;56133;51.012;-1.648;2023-01-19T06:46:19;15.30;;;6.40;;
53479;SDS011;56133;51.012;-1.648;2023-01-19T06:48:44;15.38;;;6.75;;
53479;SDS011;56133;51.012;-1.648;2023-01-19T06:51:10;16.33;;;7.13;;
53479;SDS011;56133;51.012;-1.648;2023-01-19T06:53:35;19.33;;;6.45;;
53479;SDS011;56133;51.012;-1.648;2023-01-19T06:56:00;18.08;;;7.00;;
53479;SDS011;56133;51.012;-1.648;2023-01-19T06:58:27;17.42;;;7.00;;
53479;SDS011;56133;51.012;-1.648;2023-01-19T07:00:54;18.48;;;6.93;;
53479;SDS011;56133;51.012;-1.648;2023-01-19T07:03:20;18.50;;;6.93;;
53479;SDS011;56133;51.012;-1.648;2023-01-19T07:05:51;18.42;;;6.43;;
53479;SDS011;56133;51.012;-1.648;2023-01-19T07:08:17;22.50;;;6.43;;
53479;SDS011;56133;51.012;-1.648;2023-01-19T07:10:42;15.60;;;6.53;;
53479;SDS011;56133;51.012;-1.648;2023-01-19T07:13:08;20.50;;;6.65;;
53479;SDS011;56133;51.012;-1.648;2023-01-19T07:15:34;15.75;;;6.32;;
53479;SDS011;56133;51.012;-1.648;2023-01-19T07:17:59;17.05;;;6.18;;
53479;SDS011;56133;51.012;-1.648;2023-01-19T07:20:29;18.58;;;7.45;;
53479;SDS011;56133;51.012;-1.648;2023-01-19T07:22:55;18.70;;;6.22;;
53479;SDS011;56133;51.012;-1.648;2023-01-19T07:25:21;19.48;;;6.47;;
53479;SDS011;56133;51.012;-1.648;2023-01-19T07:27:46;15.70;;;6.18;;
53479;SDS011;56133;51.012;-1.648;2023-01-19T07:30:12;16.55;;;6.65;;
53479;SDS011;56133;51.012;-1.648;2023-01-19T07:32:40;18.27;;;7.25;;
53479;SDS011;56133;51.012;-1.648;2023-01-19T07:35:06;16.17;;;7.78;;
53479;SDS011;56133;51.012;-1.648;2023-01-19T07:37:33;18.42;;;7.20;;
53479;SDS011;56133;51.012;-1.648;2023-01-19T07:39:59;19.20;;;7.55;;
53479;SDS011;56133;51.012;-1.648;2023-01-19T07:42:24;20.27;;;8.40;;
53479;SDS011;56133;51.012;-1.648;2023-01-19T07:44:50;19.85;;;8.27;;
53479;SDS011;56133;51.012;-1.648;2023-01-19T07:47:15;17.27;;;8.02;;
53479;SDS011;56133;51.012;-1.648;2023-01-19T07:49:40;20.60;;;7.82;;
53479;SDS011;56133;51.012;-1.648;2023-01-19T07:52:06;26.40;;;8.15;;
53479;SDS011;56133;51.012;-1.648;2023-01-19T07:54:32;17.98;;;7.75;;
53479;SDS011;56133;51.012;-1.648;2023-01-19T07:56:57;26.77;;;9.38;;
53479;SDS011;56133;51.012;-1.648;2023-01-19T07:59:25;28.83;;;10.50;;
53479;SDS011;56133;51.012;-1.648;2023-01-19T08:01:51;35.67;;;14.15;;
53479;SDS011;56133;51.012;-1.648;2023-01-19T08:04:18;29.58;;;12.52;;
53479;SDS011;56133;51.012;-1.648;2023-01-19T08:06:44;21.88;;;9.02;;
53479;SDS011;56133;51.012;-1.648;2023-01-19T08:09:11;24.23;;;9.63;;
53479;SDS011;56133;51.012;-1.648;2023-01-19T08:11:37;24.80;;;9.30;;
53479;SDS011;56133;51.012;-1.648;2023-01-19T08:14:02;22.25;;;9.10;;
53479;SDS011;56133;51.012;-1.648;2023-01-19T08:16:28;19.85;;;8.10;;
53479;SDS011;56133;51.012;-1.648;2023-01-19T08:18:53;21.38;;;8.25;;
53479;SDS011;56133;51.012;-1.648;2023-01-19T08:21:19;24.58;;;9.63;;
53479;SDS011;56133;51.012;-1.648;2023-01-19T08:23:54;28.98;;;11.50;;
53479;SDS011;56133;51.012;-1.648;2023-01-19T08:26:24;33.97;;;14.40;;
53479;SDS011;56133;51.012;-1.648;2023-01-19T08:28:52;45.10;;;17.95;;
53479;SDS011;56133;51.012;-1.648;2023-01-19T08:31:18;44.53;;;17.50;;
53479;SDS011;56133;51.012;-1.648;2023-01-19T08:33:44;41.83;;;16.55;;
53479;SDS011;56133;51.012;-1.648;2023-01-19T08:36:09;142.13;;;21.38;;
53479;SDS011;56133;51.012;-1.648;2023-01-19T08:38:35;57.88;;;22.50;;
53479;SDS011;56133;51.012;-1.648;2023-01-19T08:41:00;89.30;;;27.00;;
53479;SDS011;56133;51.012;-1.648;2023-01-19T08:43:26;119.90;;;31.65;;
53479;SDS011;56133;51.012;-1.648;2023-01-19T08:45:51;117.22;;;32.53;;
53479;SDS011;56133;51.012;-1.648;2023-01-19T08:48:18;115.35;;;33.00;;
53479;SDS011;56133;51.012;-1.648;2023-01-19T08:50:48;85.97;;;27.35;;
53479;SDS011;56133;51.012;-1.648;2023-01-19T08:53:15;80.50;;;24.50;;
53479;SDS011;56133;51.012;-1.648;2023-01-19T08:55:41;61.65;;;23.13;;
53479;SDS011;56133;51.012;-1.648;2023-01-19T08:58:06;60.28;;;22.15;;
53479;SDS011;56133;51.012;-1.648;2023-01-19T09:00:33;78.45;;;22.90;;
53479;SDS011;56133;51.012;-1.648;2023-01-19T09:03:02;52.90;;;17.73;;
53479;SDS011;56133;51.012;-1.648;2023-01-19T09:05:29;56.80;;;22.13;;
53479;SDS011;56133;51.012;-1.648;2023-01-19T09:08:00;53.03;;;24.08;;
53479;SDS011;56133;51.012;-1.648;2023-01-19T09:10:26;55.08;;;22.70;;
53479;SDS011;56133;51.012;-1.648;2023-01-19T09:12:55;54.67;;;22.40;;
53479;SDS011;56133;51.012;-1.648;2023-01-19T09:15:21;51.33;;;22.45;;
53479;SDS011;56133;51.012;-1.648;2023-01-19T09:17:47;102.75;;;29.85;;
53479;SDS011;56133;51.012;-1.648;2023-01-19T09:20:13;71.53;;;23.52;;
53479;SDS011;56133;51.012;-1.648;2023-01-19T09:22:38;66.22;;;22.98;;
53479;SDS011;56133;51.012;-1.648;2023-01-19T09:25:04;50.17;;;19.80;;
53479;SDS011;56133;51.012;-1.648;2023-01-19T09:27:31;46.33;;;21.00;;
53479;SDS011;56133;51.012;-1.648;2023-01-19T09:29:56;47.47;;;22.23;;
53479;SDS011;56133;51.012;-1.648;2023-01-19T09:32:22;47.95;;;21.23;;
53479;SDS011;56133;51.012;-1.648;2023-01-19T09:34:48;49.17;;;22.30;;
53479;SDS011;56133;51.012;-1.648;2023-01-19T09:37:13;103.28;;;39.65;;
53479;SDS011;56133;51.012;-1.648;2023-01-19T09:39:40;40.65;;;17.05;;
53479;SDS011;56133;51.012;-1.648;2023-01-19T09:45:07;50.55;;;16.92;;
53479;SDS011;56133;51.012;-1.648;2023-01-19T09:47:46;47.45;;;17.50;;
53479;SDS011;56133;51.012;-1.648;2023-01-19T09:50:24;63.03;;;23.52;;
53479;SDS011;56133;51.012;-1.648;2023-01-19T09:52:54;68.70;;;21.63;;
53479;SDS011;56133;51.012;-1.648;2023-01-19T09:55:26;36.63;;;15.55;;
53479;SDS011;56133;51.012;-1.648;2023-01-19T09:57:52;32.13;;;13.65;;
53479;SDS011;56133;51.012;-1.648;2023-01-19T10:00:18;37.53;;;15.73;;
53479;SDS011;56133;51.012;-1.648;2023-01-19T10:02:57;36.38;;;14.00;;
53479;SDS011;56133;51.012;-1.648;2023-01-19T10:05:33;42.75;;;16.55;;
53479;SDS011;56133;51.012;-1.648;2023-01-19T10:10:59;54.72;;;22.35;;
53479;SDS011;56133;51.012;-1.648;2023-01-19T10:18:49;29.17;;;13.65;;
53479;SDS011;56133;51.012;-1.648;2023-01-19T10:21:37;28.35;;;13.85;;
53479;SDS011;56133;51.012;-1.648;2023-01-19T10:26:37;33.10;;;14.80;;
53479;SDS011;56133;51.012;-1.648;2023-01-19T10:29:27;30.15;;;14.88;;
53479;SDS011;56133;51.012;-1.648;2023-01-19T10:32:09;37.13;;;14.75;;
53479;SDS011;56133;51.012;-1.648;2023-01-19T10:34:37;27.70;;;13.43;;
53479;SDS011;56133;51.012;-1.648;2023-01-19T10:37:20;29.08;;;13.43;;
53479;SDS011;56133;51.012;-1.648;2023-01-19T10:42:36;26.77;;;12.52;;
53479;SDS011;56133;51.012;-1.648;2023-01-19T10:45:26;25.90;;;11.75;;
53479;SDS011;56133;51.012;-1.648;2023-01-19T10:47:54;26.58;;;12.18;;
53479;SDS011;56133;51.012;-1.648;2023-01-19T10:50:28;24.15;;;12.30;;
53479;SDS011;56133;51.012;-1.648;2023-01-19T10:52:57;24.95;;;12.80;;
53479;SDS011;56133;51.012;-1.648;2023-01-19T10:57:57;27.23;;;12.18;;
53479;SDS011;56133;51.012;-1.648;2023-01-19T11:03:03;27.05;;;12.60;;
53479;SDS011;56133;51.012;-1.648;2023-01-19T11:05:44;28.00;;;13.13;;
53479;SDS011;56133;51.012;-1.648;2023-01-19T11:10:27;30.27;;;13.75;;
53479;SDS011;56133;51.012;-1.648;2023-01-19T11:13:15;25.92;;;12.70;;
53479;SDS011;56133;51.012;-1.648;2023-01-19T11:15:45;27.63;;;13.63;;
53479;SDS011;56133;51.012;-1.648;2023-01-19T11:20:53;27.77;;;13.85;;
53479;SDS011;56133;51.012;-1.648;2023-01-19T11:23:23;28.00;;;14.38;;
53479;SDS011;56133;51.012;-1.648;2023-01-19T11:25:49;29.73;;;14.98;;
53479;SDS011;56133;51.012;-1.648;2023-01-19T11:30:55;26.70;;;12.55;;
53479;SDS011;56133;51.012;-1.648;2023-01-19T11:33:22;19.52;;;8.10;;
53479;SDS011;56133;51.012;-1.648;2023-01-19T11:36:01;20.17;;;8.77;;
53479;SDS011;56133;51.012;-1.648;2023-01-19T11:38:31;18.55;;;8.63;;
53479;SDS011;56133;51.012;-1.648;2023-01-19T11:41:06;20.40;;;8.13;;
53479;SDS011;56133;51.012;-1.648;2023-01-19T11:43:40;19.30;;;9.15;;
53479;SDS011;56133;51.012;-1.648;2023-01-19T11:46:06;18.85;;;7.63;;
53479;SDS011;56133;51.012;-1.648;2023-01-19T11:48:36;16.98;;;7.55;;
53479;SDS011;56133;51.012;-1.648;2023-01-19T11:51:09;17.63;;;7.38;;
53479;SDS011;56133;51.012;-1.648;2023-01-19T11:53:39;24.90;;;8.48;;
53479;SDS011;56133;51.012;-1.648;2023-01-19T11:56:11;21.70;;;7.85;;
53479;SDS011;56133;51.012;-1.648;2023-01-19T11:58:41;20.85;;;8.02;;
53479;SDS011;56133;51.012;-1.648;2023-01-19T12:01:26;21.63;;;7.30;;
53479;SDS011;56133;51.012;-1.648;2023-01-19T12:06:44;17.73;;;5.82;;
53479;SDS011;56133;51.012;-1.648;2023-01-19T12:09:16;16.83;;;6.22;;
53479;SDS011;56133;51.012;-1.648;2023-01-19T12:11:44;16.73;;;5.65;;
53479;SDS011;56133;51.012;-1.648;2023-01-19T12:14:23;12.98;;;4.75;;
53479;SDS011;56133;51.012;-1.648;2023-01-19T12:16:58;16.08;;;5.70;;
53479;SDS011;56133;51.012;-1.648;2023-01-19T12:19:49;16.95;;;5.45;;
53479;SDS011;56133;51.012;-1.648;2023-01-19T12:22:16;19.33;;;6.78;;
53479;SDS011;56133;51.012;-1.648;2023-01-19T12:27:46;26.95;;;6.45;;
53479;SDS011;56133;51.012;-1.648;2023-01-19T12:30:23;20.30;;;6.60;;
53479;SDS011;56133;51.012;-1.648;2023-01-19T12:32:50;16.55;;;6.35;;
53479;SDS011;56133;51.012;-1.648;2023-01-19T12:43:47;14.95;;;4.15;;
53479;SDS011;56133;51.012;-1.648;2023-01-19T12:46:33;12.10;;;3.95;;
53479;SDS011;56133;51.012;-1.648;2023-01-19T12:51:32;18.80;;;5.27;;
53479;SDS011;56133;51.012;-1.648;2023-01-19T12:53:58;12.15;;;5.30;;
53479;SDS011;56133;51.012;-1.648;2023-01-19T12:56:28;15.52;;;5.53;;
53479;SDS011;56133;51.012;-1.648;2023-01-19T12:58:56;16.38;;;6.07;;
53479;SDS011;56133;51.012;-1.648;2023-01-19T13:01:22;16.85;;;7.38;;
53479;SDS011;56133;51.012;-1.648;2023-01-19T13:04:02;15.13;;;6.88;;
53479;SDS011;56133;51.012;-1.648;2023-01-19T13:09:30;17.33;;;7.03;;
53479;SDS011;56133;51.012;-1.648;2023-01-19T13:14:39;16.27;;;6.35;;
53479;SDS011;56133;51.012;-1.648;2023-01-19T13:17:51;18.05;;;5.57;;
53479;SDS011;56133;51.012;-1.648;2023-01-19T13:25:30;16.17;;;4.30;;
53479;SDS011;56133;51.012;-1.648;2023-01-19T13:27:59;12.18;;;3.85;;
53479;SDS011;56133;51.012;-1.648;2023-01-19T13:30:26;10.02;;;3.35;;
53479;SDS011;56133;51.012;-1.648;2023-01-19T13:32:59;13.05;;;3.45;;
53479;SDS011;56133;51.012;-1.648;2023-01-19T13:35:30;11.82;;;3.55;;
53479;SDS011;56133;51.012;-1.648;2023-01-19T13:37:56;10.77;;;2.80;;
53479;SDS011;56133;51.012;-1.648;2023-01-19T13:40:24;11.95;;;2.30;;
53479;SDS011;56133;51.012;-1.648;2023-01-19T13:43:00;10.13;;;2.05;;
53479;SDS011;56133;51.012;-1.648;2023-01-19T13:47:52;11.32;;;2.55;;
53479;SDS011;56133;51.012;-1.648;2023-01-19T13:50:22;9.52;;;2.35;;
53479;SDS011;56133;51.012;-1.648;2023-01-19T13:52:50;10.55;;;2.60;;
53479;SDS011;56133;51.012;-1.648;2023-01-19T13:55:19;9.45;;;2.30;;
53479;SDS011;56133;51.012;-1.648;2023-01-19T13:57:46;8.00;;;2.63;;
53479;SDS011;56133;51.012;-1.648;2023-01-19T14:00:23;9.15;;;2.75;;
53479;SDS011;56133;51.012;-1.648;2023-01-19T14:03:00;13.40;;;3.40;;
53479;SDS011;56133;51.012;-1.648;2023-01-19T14:05:43;14.23;;;2.88;;
53479;SDS011;56133;51.012;-1.648;2023-01-19T14:10:41;12.98;;;2.80;;
53479;SDS011;56133;51.012;-1.648;2023-01-19T14:13:19;10.13;;;3.05;;
53479;SDS011;56133;51.012;-1.648;2023-01-19T14:15:48;8.93;;;2.70;;
53479;SDS011;56133;51.012;-1.648;2023-01-19T14:20:40;13.77;;;3.03;;
53479;SDS011;56133;51.012;-1.648;2023-01-19T14:31:47;8.10;;;2.35;;
53479;SDS011;56133;51.012;-1.648;2023-01-19T14:34:31;7.90;;;1.65;;
53479;SDS011;56133;51.012;-1.648;2023-01-19T14:39:57;8.50;;;1.92;;
53479;SDS011;56133;51.012;-1.648;2023-01-19T14:42:32;6.28;;;1.73;;
53479;SDS011;56133;51.012;-1.648;2023-01-19T14:45:01;5.82;;;1.98;;
53479;SDS011;56133;51.012;-1.648;2023-01-19T14:47:34;10.43;;;2.80;;
53479;SDS011;56133;51.012;-1.648;2023-01-19T14:50:04;7.55;;;2.13;;
53479;SDS011;56133;51.012;-1.648;2023-01-19T14:52:36;8.30;;;1.60;;
53479;SDS011;56133;51.012;-1.648;2023-01-19T14:55:04;10.57;;;2.13;;
53479;SDS011;56133;51.012;-1.648;2023-01-19T14:57:35;8.65;;;2.08;;
53479;SDS011;56133;51.012;-1.648;2023-01-19T15:00:08;6.15;;;1.77;;
53479;SDS011;56133;51.012;-1.648;2023-01-19T15:02:36;4.32;;;1.38;;
53479;SDS011;56133;51.012;-1.648;2023-01-19T15:05:02;9.35;;;1.75;;
53479;SDS011;56133;51.012;-1.648;2023-01-19T15:07:27;5.45;;;1.42;;
53479;SDS011;56133;51.012;-1.648;2023-01-19T15:09:53;15.63;;;2.42;;
53479;SDS011;56133;51.012;-1.648;2023-01-19T15:12:18;6.65;;;1.98;;
53479;SDS011;56133;51.012;-1.648;2023-01-19T15:14:47;7.15;;;2.28;;
53479;SDS011;56133;51.012;-1.648;2023-01-19T15:17:14;9.88;;;2.63;;
53479;SDS011;56133;51.012;-1.648;2023-01-19T15:19:49;9.20;;;2.10;;
53479;SDS011;56133;51.012;-1.648;2023-01-19T15:22:14;9.93;;;2.70;;
53479;SDS011;56133;51.012;-1.648;2023-01-19T15:24:40;6.93;;;2.45;;
53479;SDS011;56133;51.012;-1.648;2023-01-19T15:27:08;7.57;;;2.47;;
53479;SDS011;56133;51.012;-1.648;2023-01-19T15:29:35;7.10;;;2.80;;
53479;SDS011;56133;51.012;-1.648;2023-01-19T15:32:00;11.30;;;2.97;;
53479;SDS011;56133;51.012;-1.648;2023-01-19T15:37:08;10.07;;;3.95;;
53479;SDS011;56133;51.012;-1.648;2023-01-19T15:39:34;13.25;;;3.58;;
53479;SDS011;56133;51.012;-1.648;2023-01-19T15:41:59;13.38;;;3.42;;
53479;SDS011;56133;51.012;-1.648;2023-01-19T15:44:25;9.85;;;3.60;;
53479;SDS011;56133;51.012;-1.648;2023-01-19T15:46:50;13.85;;;4.18;;
53479;SDS011;56133;51.012;-1.648;2023-01-19T15:49:16;10.85;;;4.20;;
53479;SDS011;56133;51.012;-1.648;2023-01-19T15:51:41;12.35;;;4.50;;
53479;SDS011;56133;51.012;-1.648;2023-01-19T15:54:08;10.13;;;4.97;;
53479;SDS011;56133;51.012;-1.648;2023-01-19T15:56:40;12.05;;;5.20;;
53479;SDS011;56133;51.012;-1.648;2023-01-19T15:59:06;15.30;;;5.60;;
53479;SDS011;56133;51.012;-1.648;2023-01-19T16:01:32;12.77;;;5.68;;